Time;durP1;ratioP1;P1;durP2;ratioP2;P2;SDS_P1;SDS_P2;PMS_P1;PMS_P2;Temp;Humidity;BMP_temperature;BMP_pressure;BME280_temperature;BME280_humidity;BME280_pressure;Samples;Min_cycle;Max_cycle;Signal;HPM_P1;HPM_P2
2023/10/30 00:02:09;;;;;;;0.00;0.00;;;;;;;11.35;100.00;98186.19;5136959;27;20552;-58
2023/10/30 00:04:56;;;;;;;0.00;0.00;;;;;;;11.34;100.00;98179.22;5136917;27;20224;-58
2023/10/30 00:07:43;;;;;;;0.00;0.00;;;;;;;11.39;100.00;98186.81;5136996;27;20247;-58
2023/10/30 00:10:30;;;;;;;0.00;0.00;;;;;;;11.37;100.00;98183.41;5136998;27;20189;-58
2023/10/30 00:13:18;;;;;;;0.00;0.00;;;;;;;11.44;100.00;98190.72;5136808;27;20189;-58
2023/10/30 00:16:05;;;;;;;0.07;0.07;;;;;;;11.41;100.00;98180.41;5135304;27;20668;-58
2023/10/30 00:18:53;;;;;;;0.00;0.00;;;;;;;11.32;100.00;98175.00;5136714;27;20274;-58
2023/10/30 00:21:40;;;;;;;0.00;0.00;;;;;;;11.34;100.00;98181.88;5136710;27;20255;-58
2023/10/30 00:24:29;;;;;;;0.00;0.00;;;;;;;11.29;100.00;98167.28;5136604;27;20193;-58
2023/10/30 00:27:17;;;;;;;0.07;0.07;;;;;;;11.39;100.00;98170.91;5136389;27;20224;-58
2023/10/30 00:30:08;;;;;;;0.10;0.10;;;;;;;11.37;100.00;98168.34;5135287;27;20201;-58
2023/10/30 00:32:54;;;;;;;0.00;0.00;;;;;;;11.42;100.00;98200.63;5136409;27;20202;-58
2023/10/30 00:35:41;;;;;;;0.00;0.00;;;;;;;11.37;100.00;98196.66;5120677;27;20750;-58
2023/10/30 00:38:28;;;;;;;0.00;0.00;;;;;;;11.41;100.00;98183.03;5136317;27;20189;-58
2023/10/30 00:41:15;;;;;;;0.10;0.10;;;;;;;11.37;100.00;98202.81;5120715;27;20319;-58
2023/10/30 00:44:02;;;;;;;0.10;0.10;;;;;;;11.45;100.00;98188.94;5119276;27;20228;-58
2023/10/30 00:46:51;;;;;;;0.10;0.10;;;;;;;11.36;100.00;98192.34;5136164;27;20189;-58
2023/10/30 00:49:38;;;;;;;0.00;0.00;;;;;;;11.36;100.00;98187.03;5136008;27;20190;-58
2023/10/30 00:52:25;;;;;;;0.00;0.00;;;;;;;11.32;100.00;98190.91;5120597;27;20196;-58
2023/10/30 00:55:13;;;;;;;0.00;0.00;;;;;;;11.34;100.00;98191.63;5136012;27;20193;-58
2023/10/30 00:58:00;;;;;;;0.00;0.00;;;;;;;11.35;100.00;98195.97;5135908;27;20668;-58
2023/10/30 01:00:47;;;;;;;0.00;0.00;;;;;;;11.38;100.00;98198.34;5134697;27;20231;-58
2023/10/30 01:03:37;;;;;;;0.00;0.00;;;;;;;11.36;100.00;98190.53;5120245;27;20266;-58
2023/10/30 01:06:24;;;;;;;0.00;0.00;;;;;;;11.36;100.00;98192.34;5135231;27;20280;-58
2023/10/30 01:09:12;;;;;;;0.10;0.10;;;;;;;11.35;100.00;98194.16;5135639;27;20360;-58
2023/10/30 01:11:59;;;;;;;0.07;0.07;;;;;;;11.44;100.00;98188.09;5135728;27;20201;-58
2023/10/30 01:14:46;;;;;;;0.00;0.00;;;;;;;11.40;100.00;98180.53;5134266;27;20197;-58
2023/10/30 01:17:33;;;;;;;0.10;0.10;;;;;;;11.39;100.00;98192.94;5120068;27;20188;-58
2023/10/30 01:20:21;;;;;;;0.00;0.00;;;;;;;11.51;100.00;98198.19;5119907;27;20198;-58
2023/10/30 01:23:07;;;;;;;0.00;0.00;;;;;;;11.48;100.00;98196.63;5119441;27;20694;-58
2023/10/30 01:25:54;;;;;;;0.00;0.00;;;;;;;11.48;100.00;98193.97;5119851;27;20263;-58
2023/10/30 01:28:41;;;;;;;0.07;0.07;;;;;;;11.52;100.00;98198.06;5134886;27;20197;-58
2023/10/30 01:31:28;;;;;;;0.00;0.00;;;;;;;11.50;100.00;98197.34;5119597;27;20190;-58
2023/10/30 01:34:15;;;;;;;0.10;0.10;;;;;;;11.50;100.00;98191.22;5135272;27;20189;-58
2023/10/30 01:37:04;;;;;;;0.07;0.07;;;;;;;11.42;100.00;98202.44;5135237;27;20263;-58
2023/10/30 01:39:51;;;;;;;0.00;0.00;;;;;;;11.40;100.00;98197.28;5134797;27;20222;-58
2023/10/30 01:42:38;;;;;;;0.00;0.00;;;;;;;11.49;100.00;98202.78;5119609;27;20193;-58
2023/10/30 01:45:24;;;;;;;0.00;0.00;;;;;;;11.49;100.00;98214.22;5133737;27;20209;-58
2023/10/30 01:48:12;;;;;;;0.10;0.10;;;;;;;11.45;100.00;98212.78;5134816;27;20197;-58
2023/10/30 01:50:59;;;;;;;0.00;0.00;;;;;;;11.50;100.00;98209.78;5119296;27;20259;-58
2023/10/30 01:53:50;;;;;;;0.00;0.00;;;;;;;11.55;100.00;98212.88;5134939;27;20262;-58
2023/10/30 01:56:37;;;;;;;0.00;0.00;;;;;;;11.48;100.00;98199.25;5134566;27;20202;-58
2023/10/30 01:59:24;;;;;;;0.10;0.10;;;;;;;11.48;100.00;98212.53;5118003;27;20190;-58
2023/10/30 02:02:12;;;;;;;0.00;0.00;;;;;;;11.55;100.00;98211.06;5119377;27;20201;-58
2023/10/30 02:04:59;;;;;;;0.00;0.00;;;;;;;11.51;100.00;98199.03;5134315;27;20201;-58
2023/10/30 02:07:45;;;;;;;0.07;0.07;;;;;;;11.55;100.00;98218.16;5119043;27;20193;-59
2023/10/30 02:10:34;;;;;;;0.10;0.10;;;;;;;11.56;100.00;98204.78;5118989;27;20261;-58
2023/10/30 02:13:21;;;;;;;0.00;0.00;;;;;;;11.57;100.00;98195.84;5134378;27;20214;-58
2023/10/30 02:16:08;;;;;;;0.10;0.10;;;;;;;11.59;100.00;98201.06;5132990;27;20741;-58
2023/10/30 02:18:55;;;;;;;0.00;0.00;;;;;;;11.62;100.00;98190.19;5134242;27;20378;-58
2023/10/30 02:21:42;;;;;;;0.00;0.00;;;;;;;11.61;100.00;98189.34;5134159;27;20200;-58
2023/10/30 02:24:29;;;;;;;0.00;0.00;;;;;;;11.60;100.00;98195.63;5118461;27;20217;-58
2023/10/30 02:27:18;;;;;;;0.10;0.10;;;;;;;11.67;100.00;98210.03;5133840;27;20233;-58
2023/10/30 02:30:08;;;;;;;0.07;0.07;;;;;;;11.64;100.00;98206.78;5132673;27;20205;-58
2023/10/30 02:32:55;;;;;;;0.00;0.00;;;;;;;11.65;100.00;98203.16;5133959;27;20194;-58
2023/10/30 02:35:42;;;;;;;0.00;0.00;;;;;;;11.63;100.00;98210.41;5133774;27;20190;-58
2023/10/30 02:38:29;;;;;;;0.10;0.10;;;;;;;11.67;100.00;98215.31;5133628;27;20246;-59
2023/10/30 02:41:16;;;;;;;0.00;0.00;;;;;;;11.66;100.00;98215.47;5133052;27;20201;-58
2023/10/30 02:44:05;;;;;;;0.00;0.00;;;;;;;11.73;100.00;98208.69;5117033;27;20190;-58
2023/10/30 02:46:52;;;;;;;0.00;0.00;;;;;;;11.77;100.00;98188.88;5133764;27;20224;-58
2023/10/30 02:49:39;;;;;;;0.00;0.00;;;;;;;11.75;100.00;98199.63;5133874;27;20279;-58
2023/10/30 02:52:26;;;;;;;0.00;0.00;;;;;;;11.78;100.00;98205.66;5133937;27;20205;-58
2023/10/30 02:55:13;;;;;;;0.00;0.00;;;;;;;11.70;100.00;98193.03;5118244;27;20302;-58
2023/10/30 02:58:00;;;;;;;0.00;0.00;;;;;;;11.64;100.00;98189.06;5133713;27;20188;-58
2023/10/30 03:00:48;;;;;;;0.00;0.00;;;;;;;11.66;100.00;98186.28;5132408;27;20306;-58
2023/10/30 03:03:35;;;;;;;0.10;0.10;;;;;;;11.64;100.00;98185.56;5118230;28;20189;-58
2023/10/30 03:06:22;;;;;;;0.10;0.10;;;;;;;11.69;100.00;98162.19;5117915;28;20290;-58
2023/10/30 03:09:09;;;;;;;0.07;0.07;;;;;;;11.61;100.00;98175.25;5133614;27;20278;-58
2023/10/30 03:11:56;;;;;;;0.00;0.00;;;;;;;11.56;100.00;98178.25;5117870;27;20190;-58
2023/10/30 03:14:43;;;;;;;0.00;0.00;;;;;;;11.62;100.00;98174.25;5132384;28;20231;-58
2023/10/30 03:17:31;;;;;;;0.10;0.10;;;;;;;11.57;100.00;98181.75;5133748;27;20292;-58
2023/10/30 03:20:18;;;;;;;0.10;0.10;;;;;;;11.66;100.00;98202.19;5133542;28;20255;-58
2023/10/30 03:23:05;;;;;;;0.00;0.00;;;;;;;11.62;100.00;98180.41;5133341;27;20502;-58
2023/10/30 03:25:52;;;;;;;0.00;0.00;;;;;;;11.55;100.00;98178.38;5133367;28;20709;-58
2023/10/30 03:28:39;;;;;;;0.00;0.00;;;;;;;11.63;100.00;98192.69;5133687;28;20193;-58
2023/10/30 03:31:26;;;;;;;0.00;0.00;;;;;;;11.62;100.00;98192.81;5133527;28;20560;-58
2023/10/30 03:34:16;;;;;;;0.10;0.10;;;;;;;11.61;100.00;98202.59;5133250;28;20264;-58
2023/10/30 03:37:03;;;;;;;0.10;0.10;;;;;;;11.55;100.00;98204.91;5133057;28;20247;-58
2023/10/30 03:39:51;;;;;;;0.00;0.00;;;;;;;11.66;100.00;98197.72;5117741;28;20202;-58
2023/10/30 03:42:38;;;;;;;0.00;0.00;;;;;;;11.63;100.00;98176.78;5133695;28;20189;-58
2023/10/30 03:45:27;;;;;;;0.00;0.00;;;;;;;11.60;100.00;98181.50;5132130;27;20193;-58
2023/10/30 03:48:14;;;;;;;0.10;0.10;;;;;;;11.46;100.00;98180.84;5132753;28;20220;-58
2023/10/30 03:51:05;;;;;;;0.00;0.00;;;;;;;11.50;100.00;98172.66;5133691;27;20205;-58
2023/10/30 03:53:52;;;;;;;0.00;0.00;;;;;;;11.49;100.00;98176.28;5137056;27;20185;-58
2023/10/30 03:56:39;;;;;;;0.00;0.00;;;;;;;11.48;100.00;98170.09;5137087;27;20193;-58
2023/10/30 03:59:26;;;;;;;0.00;0.00;;;;;;;11.49;100.00;98173.63;5135691;27;20184;-58
2023/10/30 04:02:13;;;;;;;0.10;0.10;;;;;;;11.40;100.00;98176.06;5137008;27;20193;-58
2023/10/30 04:05:00;;;;;;;0.10;0.10;;;;;;;11.37;100.00;98163.03;5136673;27;20192;-58
2023/10/30 04:07:48;;;;;;;0.10;0.10;;;;;;;11.38;100.00;98180.63;5136477;27;20259;-58
2023/10/30 04:10:35;;;;;;;0.10;0.10;;;;;;;11.41;100.00;98179.56;5136700;27;20324;-58
2023/10/30 04:13:22;;;;;;;0.00;0.00;;;;;;;11.36;100.00;98190.53;5136692;27;20201;-58
2023/10/30 04:16:11;;;;;;;0.10;0.10;;;;;;;11.55;100.00;98208.41;5135976;27;20227;-58
2023/10/30 04:18:58;;;;;;;0.10;0.10;;;;;;;11.42;100.00;98208.59;5136676;27;20251;-58
2023/10/30 04:21:44;;;;;;;0.00;0.00;;;;;;;11.45;100.00;98208.31;5136615;27;20269;-58
2023/10/30 04:24:33;;;;;;;0.00;0.00;;;;;;;11.41;100.00;98212.22;5136572;27;20251;-59
2023/10/30 04:27:21;;;;;;;0.00;0.00;;;;;;;11.37;100.00;98216.06;5136104;27;20220;-58
2023/10/30 04:30:09;;;;;;;0.00;0.00;;;;;;;11.45;100.00;98208.31;5135242;27;20583;-58
2023/10/30 04:32:57;;;;;;;0.00;0.00;;;;;;;11.42;100.00;98195.34;5136152;27;20206;-58
2023/10/30 04:35:44;;;;;;;0.10;0.10;;;;;;;11.41;100.00;98200.75;5136306;27;20369;-58
2023/10/30 04:38:31;;;;;;;0.10;0.10;;;;;;;11.41;100.00;98196.31;5136410;27;20189;-58
2023/10/30 04:41:20;;;;;;;0.00;0.00;;;;;;;11.43;100.00;98183.75;5135976;27;20303;-58
2023/10/30 04:44:07;;;;;;;0.00;0.00;;;;;;;11.45;100.00;98183.63;5134964;27;20746;-58
2023/10/30 04:46:53;;;;;;;0.00;0.00;;;;;;;11.35;100.00;98175.59;5136118;27;20217;-58
2023/10/30 04:49:45;;;;;;;0.00;0.00;;;;;;;11.34;100.00;98181.88;5135878;27;20216;-58
2023/10/30 04:52:32;;;;;;;0.10;0.10;;;;;;;11.38;100.00;98177.13;5135923;27;20190;-58
2023/10/30 04:55:19;;;;;;;0.03;0.03;;;;;;;11.38;100.00;98163.88;5136115;27;20197;-58
2023/10/30 04:58:07;;;;;;;0.10;0.10;;;;;;;11.38;100.00;98159.41;5135671;27;20202;-58
2023/10/30 05:00:54;;;;;;;0.00;0.00;;;;;;;11.37;100.00;98149.78;5134553;27;20300;-58
2023/10/30 05:03:40;;;;;;;0.00;0.00;;;;;;;11.46;100.00;98156.13;5135024;27;20193;-58
2023/10/30 05:06:27;;;;;;;0.00;0.00;;;;;;;11.38;100.00;98151.47;5135632;27;20818;-58
2023/10/30 05:09:14;;;;;;;0.03;0.03;;;;;;;11.43;100.00;98159.88;5135352;27;20213;-58
2023/10/30 05:12:01;;;;;;;0.00;0.00;;;;;;;11.32;100.00;98153.81;5135699;27;20304;-58
2023/10/30 05:14:50;;;;;;;0.10;0.10;;;;;;;11.48;100.00;98159.50;5134063;27;20612;-58
2023/10/30 05:17:38;;;;;;;0.00;0.00;;;;;;;11.31;100.00;98165.38;5135304;27;20324;-58
2023/10/30 05:20:25;;;;;;;0.00;0.00;;;;;;;11.43;100.00;98167.84;5135408;27;20194;-58
2023/10/30 05:23:12;;;;;;;0.00;0.00;;;;;;;11.31;100.00;98181.28;5134824;27;20254;-58
2023/10/30 05:25:59;;;;;;;0.10;0.10;;;;;;;11.33;100.00;98180.19;5135328;27;20675;-58
2023/10/30 05:28:46;;;;;;;0.00;0.00;;;;;;;11.30;100.00;98188.41;5133745;27;20255;-58
2023/10/30 05:31:34;;;;;;;0.00;0.00;;;;;;;11.39;100.00;98189.44;5135111;27;20251;-58
2023/10/30 05:34:21;;;;;;;0.07;0.07;;;;;;;11.39;100.00;98178.84;5135147;27;20198;-58
2023/10/30 05:37:09;;;;;;;0.03;0.03;;;;;;;11.34;100.00;98181.03;5135058;27;20263;-58
2023/10/30 05:39:56;;;;;;;0.00;0.00;;;;;;;11.36;100.00;98187.88;5134942;27;20240;-58
2023/10/30 05:42:43;;;;;;;0.00;0.00;;;;;;;11.38;100.00;98196.53;5119601;27;20185;-58
2023/10/30 05:45:30;;;;;;;0.00;0.00;;;;;;;11.36;100.00;98189.69;5133349;27;20216;-58
2023/10/30 05:48:19;;;;;;;0.10;0.10;;;;;;;11.37;100.00;98184.25;5134711;27;20313;-58
2023/10/30 05:51:05;;;;;;;0.00;0.00;;;;;;;11.37;100.00;98205.47;5135099;27;20185;-58
2023/10/30 05:53:52;;;;;;;0.00;0.00;;;;;;;11.40;100.00;98204.38;5134891;27;20212;-58
2023/10/30 05:56:39;;;;;;;0.00;0.00;;;;;;;11.34;100.00;98204.88;5134391;27;20323;-58
2023/10/30 05:59:25;;;;;;;0.10;0.10;;;;;;;11.36;100.00;98205.59;5133488;27;20235;-58
2023/10/30 06:02:14;;;;;;;0.10;0.10;;;;;;;11.34;100.00;98208.38;5134787;27;20197;-58
2023/10/30 06:05:05;;;;;;;0.10;0.10;;;;;;;11.34;100.00;98237.53;5134453;27;20241;-58
2023/10/30 06:07:51;;;;;;;0.00;0.00;;;;;;;11.30;100.00;98227.31;5134358;27;20233;-58
2023/10/30 06:10:38;;;;;;;0.00;0.00;;;;;;;11.36;100.00;98235.59;5134554;27;20217;-58
2023/10/30 06:13:25;;;;;;;0.10;0.10;;;;;;;11.38;100.00;98240.75;5134462;27;20341;-58
2023/10/30 06:16:15;;;;;;;0.10;0.10;;;;;;;11.34;100.00;98240.19;5134434;27;20323;-58
2023/10/30 06:19:02;;;;;;;0.10;0.10;;;;;;;11.32;100.00;98251.91;5134289;27;20211;-58
2023/10/30 06:21:50;;;;;;;0.10;0.10;;;;;;;11.35;100.00;98241.03;5134069;27;20192;-58
2023/10/30 06:24:37;;;;;;;0.00;0.00;;;;;;;11.27;100.00;98254.06;5134215;27;20209;-58
2023/10/30 06:27:24;;;;;;;0.00;0.00;;;;;;;11.25;100.00;98243.59;5133921;27;20283;-58
2023/10/30 06:30:14;;;;;;;0.03;0.03;;;;;;;11.24;100.00;98246.38;5132842;27;20269;-58
2023/10/30 06:33:01;;;;;;;0.00;0.00;;;;;;;11.24;100.00;98249.84;5134282;27;20216;-58
2023/10/30 06:35:48;;;;;;;0.00;0.00;;;;;;;11.27;100.00;98248.75;5134141;27;20231;-58
2023/10/30 06:38:36;;;;;;;0.10;0.10;;;;;;;11.23;100.00;98248.19;5133999;27;20691;-58
2023/10/30 06:41:22;;;;;;;0.00;0.00;;;;;;;11.25;100.00;98246.25;5133983;27;20315;-58
2023/10/30 06:44:09;;;;;;;0.10;0.10;;;;;;;11.16;100.00;98242.53;5132507;27;20193;-58
2023/10/30 06:46:58;;;;;;;0.00;0.00;;;;;;;11.20;100.00;98239.66;5133751;27;20208;-58
2023/10/30 06:49:44;;;;;;;0.00;0.00;;;;;;;11.16;100.00;98239.03;5133526;27;20242;-58
2023/10/30 06:52:31;;;;;;;0.10;0.10;;;;;;;11.26;100.00;98231.19;5133757;27;20196;-58
2023/10/30 06:55:20;;;;;;;0.10;0.10;;;;;;;11.26;100.00;98225.88;5133673;27;20189;-58
2023/10/30 06:58:07;;;;;;;0.10;0.10;;;;;;;11.11;100.00;98243.88;5133635;27;20255;-58
2023/10/30 07:01:02;;;;;;;0.00;0.00;;;;;;;11.10;100.00;98242.19;5132254;27;20361;-58
2023/10/30 07:03:49;;;;;;;0.00;0.00;;;;;;;11.10;100.00;98242.19;5133929;28;20203;-58
2023/10/30 07:06:36;;;;;;;0.00;0.00;;;;;;;11.11;100.00;98250.03;5133620;28;20198;-58
2023/10/30 07:09:23;;;;;;;0.00;0.00;;;;;;;11.07;100.00;98245.91;5133577;27;20213;-58
2023/10/30 07:12:11;;;;;;;0.07;0.07;;;;;;;11.06;100.00;98257.47;5133436;27;20323;-58
2023/10/30 07:14:58;;;;;;;0.10;0.10;;;;;;;11.07;100.00;98260.97;5132382;28;20377;-58
2023/10/30 07:17:45;;;;;;;0.03;0.03;;;;;;;11.09;100.00;98267.81;5133368;28;20197;-58
2023/10/30 07:20:32;;;;;;;0.10;0.10;;;;;;;11.13;100.00;98265.78;5133477;28;20207;-58
2023/10/30 07:23:19;;;;;;;0.10;0.10;;;;;;;11.08;100.00;98267.94;5133487;28;20228;-58
2023/10/30 07:26:06;;;;;;;0.00;0.00;;;;;;;11.04;100.00;98259.41;5133909;27;20186;-58
2023/10/30 07:28:55;;;;;;;0.00;0.00;;;;;;;11.05;100.00;98261.09;5136155;27;20684;-58
2023/10/30 07:31:42;;;;;;;0.00;0.00;;;;;;;11.12;100.00;98257.00;5136540;27;20200;-58
2023/10/30 07:34:28;;;;;;;0.00;0.00;;;;;;;11.11;100.00;98254.47;5137313;27;20193;-58
2023/10/30 07:37:15;;;;;;;0.00;0.00;;;;;;;11.11;100.00;98242.06;5137668;27;20205;-58
2023/10/30 07:40:03;;;;;;;0.00;0.00;;;;;;;11.12;100.00;98254.34;5137688;27;20189;-58
2023/10/30 07:42:50;;;;;;;0.00;0.00;;;;;;;11.16;100.00;98258.44;5137120;27;20215;-58
2023/10/30 07:45:42;;;;;;;0.00;0.00;;;;;;;11.09;100.00;98257.22;5135975;27;20185;-58
2023/10/30 07:48:29;;;;;;;0.00;0.00;;;;;;;11.16;100.00;98262.88;5137038;27;20243;-58
2023/10/30 07:51:16;;;;;;;0.00;0.00;;;;;;;11.18;100.00;98268.91;5136685;27;20189;-58
2023/10/30 07:54:02;;;;;;;0.00;0.00;;;;;;;11.11;100.00;98271.22;5137230;27;20193;-58
2023/10/30 07:56:49;;;;;;;0.00;0.00;;;;;;;11.08;100.00;98267.94;5136520;27;20189;-58
2023/10/30 07:59:36;;;;;;;0.00;0.00;;;;;;;11.22;100.00;98259.75;5135675;27;20193;-58
2023/10/30 08:02:25;;;;;;;0.00;0.00;;;;;;;11.24;100.00;98257.81;5137040;27;20192;-58
2023/10/30 08:05:15;;;;;;;0.03;0.03;;;;;;;11.13;100.00;98244.59;5136934;27;20263;-58
2023/10/30 08:08:01;;;;;;;0.00;0.00;;;;;;;11.20;100.00;98229.88;5136486;27;20194;-58
2023/10/30 08:10:48;;;;;;;0.00;0.00;;;;;;;11.18;100.00;98245.03;5121034;27;20197;-58
2023/10/30 08:13:35;;;;;;;0.00;0.00;;;;;;;11.22;100.00;98235.91;5136552;27;20231;-58
2023/10/30 08:16:22;;;;;;;0.00;0.00;;;;;;;11.25;100.00;98242.75;5136630;27;20189;-58
2023/10/30 08:19:11;;;;;;;0.00;0.00;;;;;;;11.39;100.00;98242.47;5136896;27;20186;-58
2023/10/30 08:21:57;;;;;;;0.00;0.00;;;;;;;11.27;100.00;98252.25;5136701;27;20197;-58
2023/10/30 08:24:44;;;;;;;0.10;0.10;;;;;;;11.25;100.00;98240.09;5136400;27;20267;-58
2023/10/30 08:27:31;;;;;;;0.00;0.00;;;;;;;11.29;100.00;98245.03;5136337;27;20190;-58
2023/10/30 08:30:19;;;;;;;0.00;0.00;;;;;;;11.42;100.00;98258.97;5134966;27;20229;-58
2023/10/30 08:33:05;;;;;;;0.00;0.00;;;;;;;11.38;100.00;98251.38;5136318;27;20344;-58
2023/10/30 08:35:55;;;;;;;0.10;0.10;;;;;;;11.29;100.00;98253.00;5120864;27;20193;-58
2023/10/30 08:38:41;;;;;;;0.03;0.03;;;;;;;11.29;100.00;98258.28;5134996;27;20190;-58
2023/10/30 08:41:28;;;;;;;0.00;0.00;;;;;;;11.31;100.00;98271.41;5135964;27;20327;-58
2023/10/30 08:44:15;;;;;;;0.00;0.00;;;;;;;11.27;100.00;98264.66;5134834;27;20292;-58
2023/10/30 08:47:02;;;;;;;0.10;0.10;;;;;;;11.39;100.00;98250.44;5136341;27;20640;-58
2023/10/30 08:49:49;;;;;;;0.00;0.00;;;;;;;11.32;100.00;98250.09;5136123;27;20326;-58
2023/10/30 08:52:37;;;;;;;0.00;0.00;;;;;;;11.44;100.00;98259.69;5136201;27;20209;-58
2023/10/30 08:55:24;;;;;;;0.00;0.00;;;;;;;11.41;100.00;98256.44;5135889;27;20194;-58
2023/10/30 08:58:10;;;;;;;0.10;0.10;;;;;;;11.45;100.00;98244.59;5135827;27;20253;-58
2023/10/30 09:00:58;;;;;;;0.00;0.00;;;;;;;11.45;100.00;98245.44;5134716;27;20189;-58
2023/10/30 09:03:44;;;;;;;0.00;0.00;;;;;;;11.60;100.00;98242.50;5135986;27;20267;-58
2023/10/30 09:06:32;;;;;;;0.10;0.10;;;;;;;11.65;100.00;98237.66;5135933;27;20239;-58
2023/10/30 09:09:20;;;;;;;0.00;0.00;;;;;;;11.62;100.00;98245.88;5135684;27;20213;-58
2023/10/30 09:12:08;;;;;;;0.00;0.00;;;;;;;11.66;100.00;98245.47;5135863;27;20264;-58
2023/10/30 09:14:55;;;;;;;0.07;0.07;;;;;;;11.61;100.00;98244.19;5134416;27;20277;-58
2023/10/30 09:17:41;;;;;;;0.10;0.10;;;;;;;11.82;100.00;98266.31;5135499;27;20311;-58
2023/10/30 09:20:28;;;;;;;0.00;0.00;;;;;;;11.67;100.00;98268.38;5135600;27;20185;-58
2023/10/30 09:23:15;;;;;;;0.00;0.00;;;;;;;11.70;100.00;98264.66;5134836;27;20749;-58
2023/10/30 09:26:04;;;;;;;0.00;0.00;;;;;;;11.85;100.00;98271.34;5134953;27;20215;-58
2023/10/30 09:28:52;;;;;;;0.00;0.00;;;;;;;11.78;100.00;98256.91;5134127;27;20193;-58
2023/10/30 09:31:39;;;;;;;0.00;0.00;;;;;;;11.87;100.00;98257.94;5135266;27;20205;-58
2023/10/30 09:34:26;;;;;;;0.10;0.10;;;;;;;11.80;100.00;98248.84;5135281;27;20204;-58
2023/10/30 09:37:13;;;;;;;0.00;0.00;;;;;;;11.88;100.00;98246.41;5134875;27;20201;-58
2023/10/30 09:40:00;;;;;;;0.00;0.00;;;;;;;12.01;100.00;98229.28;5135071;27;20664;-58
2023/10/30 09:42:52;;;;;;;0.00;0.00;;;;;;;12.03;100.00;98230.00;5135082;27;20251;-58
2023/10/30 09:45:42;;;;;;;0.00;0.00;;;;;;;12.10;100.00;98226.84;5133791;27;20201;-58
2023/10/30 09:48:32;;;;;;;0.00;0.00;;;;;;;12.10;100.00;98209.09;5134779;27;20675;-58
2023/10/30 09:51:21;;;;;;;0.00;0.00;;;;;;;12.31;100.00;98201.09;5134864;27;20304;-58
2023/10/30 09:54:08;;;;;;;0.00;0.00;;;;;;;12.49;100.00;98194.19;5134475;27;20271;-58
2023/10/30 09:56:55;;;;;;;0.00;0.00;;;;;;;12.37;100.00;98189.13;5134454;27;20194;-58
2023/10/30 09:59:45;;;;;;;0.00;0.00;;;;;;;12.45;100.00;98197.22;5133477;27;20544;-58
2023/10/30 10:02:31;;;;;;;0.00;0.00;;;;;;;12.64;100.00;98188.50;5134768;27;20193;-58
2023/10/30 10:05:18;;;;;;;0.10;0.10;;;;;;;12.31;100.00;98188.66;5134414;27;20193;-58
2023/10/30 10:08:06;;;;;;;0.00;0.00;;;;;;;12.45;100.00;98181.28;5134406;27;20189;-58
2023/10/30 10:10:57;;;;;;;0.00;0.00;;;;;;;12.44;100.00;98177.78;5134014;27;20212;-58
2023/10/30 10:13:48;;;;;;;0.03;0.03;;;;;;;12.56;100.00;98171.44;5133210;27;20184;-58
2023/10/30 10:16:52;;;;;;;0.00;0.00;;;;;;;12.74;100.00;98173.41;5134360;27;20189;-58
2023/10/30 10:19:46;;;;;;;0.00;0.00;;;;;;;12.72;100.00;98164.75;5134091;27;20271;-58
2023/10/30 10:22:33;;;;;;;0.00;0.00;;;;;;;12.78;100.00;98149.09;5134009;27;20225;-58
2023/10/30 10:25:21;;;;;;;0.00;0.00;;;;;;;12.80;100.00;98152.47;5134357;27;20197;-58
2023/10/30 10:28:08;;;;;;;0.00;0.00;;;;;;;12.78;100.00;98140.31;5134176;27;20209;-58
2023/10/30 10:30:59;;;;;;;0.00;0.00;;;;;;;12.68;100.00;98120.84;5132810;27;20711;-58
2023/10/30 10:33:49;;;;;;;0.00;0.00;;;;;;;12.73;100.00;98129.22;5134124;27;20197;-58
2023/10/30 10:36:36;;;;;;;0.00;0.00;;;;;;;12.70;100.00;98111.75;5133996;27;20733;-58
2023/10/30 10:39:23;;;;;;;0.00;0.00;;;;;;;12.84;100.00;98116.69;5133903;27;20201;-58
2023/10/30 10:42:10;;;;;;;0.00;0.00;;;;;;;12.95;100.00;98106.91;5133786;27;20189;-58
2023/10/30 10:44:58;;;;;;;0.00;0.00;;;;;;;13.40;100.00;98085.91;5132562;27;20263;-58
2023/10/30 10:47:45;;;;;;;0.10;0.10;;;;;;;13.63;100.00;98084.63;5133864;27;20687;-58
2023/10/30 10:50:34;;;;;;;0.10;0.10;;;;;;;13.94;100.00;98065.75;5133662;27;20778;-58
2023/10/30 10:53:21;;;;;;;0.00;0.00;;;;;;;14.04;100.00;98051.41;5133664;27;20190;-58
2023/10/30 10:56:09;;;;;;;0.10;0.10;;;;;;;13.98;100.00;98037.84;5133621;27;20214;-58
2023/10/30 10:59:04;;;;;;;0.00;0.00;;;;;;;14.39;100.00;98022.34;5131795;27;20205;-58
2023/10/30 11:01:56;;;;;;;0.10;0.10;;;;;;;14.39;100.00;98007.22;5132984;27;20197;-58
2023/10/30 11:04:43;;;;;;;0.10;0.10;;;;;;;14.18;100.00;97985.31;5133719;27;20263;-58
2023/10/30 11:07:37;;;;;;;0.10;0.10;;;;;;;14.11;100.00;97979.78;5133634;28;20193;-58
2023/10/30 11:10:31;;;;;;;0.10;0.10;;;;;;;14.44;100.00;97970.28;5133610;27;20684;-57
2023/10/30 11:13:29;;;;;;;0.00;0.00;;;;;;;14.83;100.00;97965.50;5133570;27;20196;-58
2023/10/30 11:16:22;;;;;;;0.00;0.00;;;;;;;14.76;100.00;97947.59;5133385;27;20201;-58
2023/10/30 11:19:08;;;;;;;0.10;0.10;;;;;;;14.54;100.00;97933.78;5133451;28;20193;-58
2023/10/30 11:21:56;;;;;;;0.00;0.00;;;;;;;14.69;100.00;97928.75;5133274;27;20186;-58
2023/10/30 11:24:45;;;;;;;0.00;0.00;;;;;;;14.38;100.00;97917.63;5112897;28;20248;-58
2023/10/30 11:27:36;;;;;;;0.00;0.00;;;;;;;14.52;100.00;97913.59;5112852;28;20193;-57
2023/10/30 11:30:24;;;;;;;0.00;0.00;;;;;;;14.85;100.00;97888.88;5111254;28;20230;-57
2023/10/30 11:33:21;;;;;;;0.00;0.00;;;;;;;14.97;100.00;97877.97;5112749;28;20193;-58
2023/10/30 11:36:30;;;;;;;0.00;0.00;;;;;;;15.74;100.00;97866.34;5112951;28;20201;-58
2023/10/30 11:39:21;;;;;;;0.00;0.00;;;;;;;16.99;100.00;97825.97;5112882;28;20289;-58
2023/10/30 11:42:32;;;;;;;0.00;0.00;;;;;;;18.69;100.00;97779.53;5112619;28;20613;-57
2023/10/30 11:45:25;;;;;;;0.00;0.00;;;;;;;19.64;100.00;97758.09;5111389;28;20209;-58
2023/10/30 11:48:13;;;;;;;0.07;0.07;;;;;;;19.54;100.00;97744.13;5112746;28;20208;-58
2023/10/30 11:51:03;;;;;;;0.07;0.07;;;;;;;17.86;100.00;97737.53;5112250;28;20218;-58
2023/10/30 11:53:52;;;;;;;0.00;0.00;;;;;;;17.62;100.00;97725.94;5112574;28;20669;-58
2023/10/30 11:56:39;;;;;;;0.00;0.00;;;;;;;17.10;100.00;97725.75;5112642;28;20656;-58
2023/10/30 11:59:28;;;;;;;0.10;0.10;;;;;;;16.64;100.00;97727.41;5111011;28;20198;-58
2023/10/30 12:02:15;;;;;;;0.10;0.10;;;;;;;16.78;100.00;97716.03;5112369;28;20195;-57
2023/10/30 12:05:06;;;;;;;0.00;0.00;;;;;;;15.96;100.00;97729.53;5112306;28;20198;-57
2023/10/30 12:07:52;;;;;;;0.10;0.10;;;;;;;16.05;100.00;97719.66;5096795;28;20206;-57
2023/10/30 12:10:39;;;;;;;0.10;0.10;;;;;;;16.12;100.00;97717.16;5112398;28;20214;-58
2023/10/30 12:13:26;;;;;;;0.10;0.10;;;;;;;17.01;100.00;97716.94;5114971;28;20244;-58
2023/10/30 12:16:14;;;;;;;0.00;0.00;;;;;;;17.66;100.00;97715.69;5115811;28;20198;-58
2023/10/30 12:19:02;;;;;;;0.10;0.10;;;;;;;16.60;100.00;97702.88;5116107;28;20194;-58
2023/10/30 12:21:50;;;;;;;0.10;0.10;;;;;;;16.49;100.00;97701.38;5115794;28;20210;-58
2023/10/30 12:24:37;;;;;;;0.10;0.10;;;;;;;16.30;100.00;97689.22;5115748;28;20183;-57
2023/10/30 12:27:24;;;;;;;0.00;0.00;;;;;;;16.18;100.00;97682.59;5115774;28;20197;-58
2023/10/30 12:30:14;;;;;;;0.10;0.10;;;;;;;16.09;100.00;97683.59;5114452;28;20306;-58
2023/10/30 12:33:03;;;;;;;0.10;0.10;;;;;;;16.06;100.00;97675.09;5115594;28;20665;-57
2023/10/30 12:35:56;;;;;;;0.00;0.00;;;;;;;16.12;100.00;97666.41;5115680;28;20186;-58
2023/10/30 12:38:43;;;;;;;0.00;0.00;;;;;;;16.20;100.00;97661.03;5115652;28;20242;-58
2023/10/30 12:41:30;;;;;;;0.10;0.10;;;;;;;16.39;100.00;97655.31;5115542;28;20197;-58
2023/10/30 12:44:18;;;;;;;0.10;0.10;;;;;;;16.05;100.00;97650.22;5114422;28;20197;-57
2023/10/30 12:47:07;;;;;;;0.00;0.00;;;;;;;16.44;100.00;97647.63;5115517;28;20190;-57
2023/10/30 12:49:58;;;;;;;0.00;0.00;;;;;;;16.40;100.00;97637.44;5115396;28;20695;-57
2023/10/30 12:52:45;;;;;;;0.10;0.10;;;;;;;16.64;100.00;97634.69;5115318;28;20206;-58
2023/10/30 12:55:32;;;;;;;0.10;0.10;;;;;;;16.60;100.00;97630.69;5115436;28;20316;-57
2023/10/30 12:58:19;;;;;;;0.10;0.10;;;;;;;16.40;100.00;97626.75;5115412;28;20202;-58
2023/10/30 13:01:06;;;;;;;0.10;0.10;;;;;;;15.80;100.00;97621.88;5115353;28;20193;-57